Louisville, Georgia
Current Conditions -  °F | °C
As of 1:15 AM on Sunday 23 Nov 2014 (Local Time) from KOKZ Reporting Station
Overcast Overcast  
Wind Chill: 45°   Ceiling: 8000
Heat Index: 50°   Visibility: 10mi
Dew Point: 48°   Wind: 10mph
Humidity: 95%   Direction: 100°E
Pressure: 30.21"   Gusts: NA
Location:  33°N, 82.41°W
Report Text: KOKZ 230615Z AUTO 10009KT 10SM BKN080 OVC090 10/09 A3021 RMK AO2 T00980090
Loading
Personal Weather Stations






























Interactive Weather Map New forecast layout! Learn more

10-Day Weather Forecast

Advertisements
Track Severe Weather on mobile